sensor_id;sensor_type;location;lat;lon;timestamp;P1;durP1;ratioP1;P2;durP2;ratioP2
10045;SDS011;5063;50.878;4.742;2023-07-29T00:00:53;2.10;;;1.58;;
10045;SDS011;5063;50.878;4.742;2023-07-29T00:03:20;1.73;;;1.52;;
10045;SDS011;5063;50.878;4.742;2023-07-29T00:05:47;2.75;;;2.08;;
10045;SDS011;5063;50.878;4.742;2023-07-29T00:08:13;2.50;;;1.80;;
10045;SDS011;5063;50.878;4.742;2023-07-29T00:10:38;1.90;;;1.73;;
10045;SDS011;5063;50.878;4.742;2023-07-29T00:13:04;1.42;;;1.33;;
10045;SDS011;5063;50.878;4.742;2023-07-29T00:15:31;1.85;;;1.65;;
10045;SDS011;5063;50.878;4.742;2023-07-29T00:17:57;4.80;;;1.95;;
10045;SDS011;5063;50.878;4.742;2023-07-29T00:20:22;3.70;;;1.70;;
10045;SDS011;5063;50.878;4.742;2023-07-29T00:22:48;2.10;;;1.90;;
10045;SDS011;5063;50.878;4.742;2023-07-29T00:25:19;2.57;;;1.40;;
10045;SDS011;5063;50.878;4.742;2023-07-29T00:27:46;3.80;;;1.50;;
10045;SDS011;5063;50.878;4.742;2023-07-29T00:30:12;2.85;;;1.60;;
10045;SDS011;5063;50.878;4.742;2023-07-29T00:32:38;1.60;;;1.50;;
10045;SDS011;5063;50.878;4.742;2023-07-29T00:35:03;1.83;;;1.70;;
10045;SDS011;5063;50.878;4.742;2023-07-29T00:37:30;2.35;;;1.75;;
10045;SDS011;5063;50.878;4.742;2023-07-29T00:39:56;2.70;;;1.65;;
10045;SDS011;5063;50.878;4.742;2023-07-29T00:42:22;5.17;;;1.67;;
10045;SDS011;5063;50.878;4.742;2023-07-29T00:44:48;1.73;;;1.60;;
10045;SDS011;5063;50.878;4.742;2023-07-29T00:47:14;3.38;;;1.52;;
10045;SDS011;5063;50.878;4.742;2023-07-29T00:49:41;1.42;;;1.33;;
10045;SDS011;5063;50.878;4.742;2023-07-29T00:52:08;1.40;;;1.30;;
10045;SDS011;5063;50.878;4.742;2023-07-29T00:54:37;2.13;;;1.60;;
10045;SDS011;5063;50.878;4.742;2023-07-29T00:57:07;1.70;;;1.60;;
10045;SDS011;5063;50.878;4.742;2023-07-29T00:59:35;1.93;;;1.40;;
10045;SDS011;5063;50.878;4.742;2023-07-29T01:02:01;3.37;;;1.80;;
10045;SDS011;5063;50.878;4.742;2023-07-29T01:04:27;1.43;;;1.33;;
10045;SDS011;5063;50.878;4.742;2023-07-29T01:06:56;1.90;;;1.60;;
10045;SDS011;5063;50.878;4.742;2023-07-29T01:13:05;3.33;;;1.60;;
10045;SDS011;5063;50.878;4.742;2023-07-29T01:17:38;1.40;;;1.30;;
10045;SDS011;5063;50.878;4.742;2023-07-29T01:20:08;2.60;;;1.40;;
10045;SDS011;5063;50.878;4.742;2023-07-29T01:22:36;2.13;;;1.50;;
10045;SDS011;5063;50.878;4.742;2023-07-29T01:25:03;3.57;;;1.40;;
10045;SDS011;5063;50.878;4.742;2023-07-29T01:27:29;2.40;;;1.30;;
10045;SDS011;5063;50.878;4.742;2023-07-29T01:29:56;2.23;;;1.43;;
10045;SDS011;5063;50.878;4.742;2023-07-29T01:34:56;2.17;;;1.67;;
10045;SDS011;5063;50.878;4.742;2023-07-29T01:37:49;2.70;;;1.60;;
10045;SDS011;5063;50.878;4.742;2023-07-29T01:40:18;2.13;;;1.30;;
10045;SDS011;5063;50.878;4.742;2023-07-29T01:42:44;1.73;;;1.30;;
10045;SDS011;5063;50.878;4.742;2023-07-29T01:45:11;2.50;;;1.70;;
10045;SDS011;5063;50.878;4.742;2023-07-29T01:47:36;1.77;;;1.50;;
10045;SDS011;5063;50.878;4.742;2023-07-29T01:50:05;1.30;;;1.20;;
10045;SDS011;5063;50.878;4.742;2023-07-29T01:52:31;1.50;;;1.40;;
10045;SDS011;5063;50.878;4.742;2023-07-29T01:54:57;1.63;;;1.53;;
10045;SDS011;5063;50.878;4.742;2023-07-29T01:57:23;3.30;;;1.53;;
10045;SDS011;5063;50.878;4.742;2023-07-29T01:59:48;2.23;;;1.47;;
10045;SDS011;5063;50.878;4.742;2023-07-29T02:02:14;1.50;;;1.37;;
10045;SDS011;5063;50.878;4.742;2023-07-29T02:04:40;4.23;;;1.30;;
10045;SDS011;5063;50.878;4.742;2023-07-29T02:07:05;3.57;;;1.40;;
10045;SDS011;5063;50.878;4.742;2023-07-29T02:09:31;2.37;;;1.67;;
10045;SDS011;5063;50.878;4.742;2023-07-29T02:11:57;1.47;;;1.37;;
10045;SDS011;5063;50.878;4.742;2023-07-29T02:14:23;1.97;;;1.60;;
10045;SDS011;5063;50.878;4.742;2023-07-29T02:16:48;3.33;;;1.77;;
10045;SDS011;5063;50.878;4.742;2023-07-29T02:19:15;2.33;;;1.47;;
10045;SDS011;5063;50.878;4.742;2023-07-29T02:21:41;1.93;;;1.60;;
10045;SDS011;5063;50.878;4.742;2023-07-29T02:24:07;1.97;;;1.53;;
10045;SDS011;5063;50.878;4.742;2023-07-29T02:26:32;2.97;;;1.67;;
10045;SDS011;5063;50.878;4.742;2023-07-29T02:28:58;4.10;;;1.80;;
10045;SDS011;5063;50.878;4.742;2023-07-29T02:31:24;1.53;;;1.43;;
10045;SDS011;5063;50.878;4.742;2023-07-29T02:33:50;3.17;;;1.73;;
10045;SDS011;5063;50.878;4.742;2023-07-29T02:36:17;1.30;;;1.20;;
10045;SDS011;5063;50.878;4.742;2023-07-29T02:38:43;2.90;;;1.63;;
10045;SDS011;5063;50.878;4.742;2023-07-29T02:41:09;2.23;;;1.70;;
10045;SDS011;5063;50.878;4.742;2023-07-29T02:43:37;3.83;;;1.77;;
10045;SDS011;5063;50.878;4.742;2023-07-29T02:46:03;4.83;;;1.63;;
10045;SDS011;5063;50.878;4.742;2023-07-29T02:48:28;1.97;;;1.57;;
10045;SDS011;5063;50.878;4.742;2023-07-29T02:50:55;3.43;;;1.93;;
10045;SDS011;5063;50.878;4.742;2023-07-29T02:53:21;1.77;;;1.67;;
10045;SDS011;5063;50.878;4.742;2023-07-29T02:55:47;3.17;;;1.73;;
10045;SDS011;5063;50.878;4.742;2023-07-29T02:58:14;2.20;;;2.00;;
10045;SDS011;5063;50.878;4.742;2023-07-29T03:00:40;1.93;;;1.77;;
10045;SDS011;5063;50.878;4.742;2023-07-29T03:03:08;2.33;;;1.83;;
10045;SDS011;5063;50.878;4.742;2023-07-29T03:05:34;3.57;;;2.03;;
10045;SDS011;5063;50.878;4.742;2023-07-29T03:08:00;2.07;;;1.83;;
10045;SDS011;5063;50.878;4.742;2023-07-29T03:10:26;3.73;;;1.90;;
10045;SDS011;5063;50.878;4.742;2023-07-29T03:12:54;5.47;;;1.90;;
10045;SDS011;5063;50.878;4.742;2023-07-29T03:15:24;4.13;;;2.23;;
10045;SDS011;5063;50.878;4.742;2023-07-29T03:17:51;2.93;;;1.80;;
10045;SDS011;5063;50.878;4.742;2023-07-29T03:20:17;3.67;;;1.70;;
10045;SDS011;5063;50.878;4.742;2023-07-29T03:22:43;2.70;;;2.10;;
10045;SDS011;5063;50.878;4.742;2023-07-29T03:25:09;2.87;;;1.83;;
10045;SDS011;5063;50.878;4.742;2023-07-29T03:27:35;1.80;;;1.70;;
10045;SDS011;5063;50.878;4.742;2023-07-29T03:30:04;2.10;;;1.80;;
10045;SDS011;5063;50.878;4.742;2023-07-29T03:32:30;3.70;;;2.00;;
10045;SDS011;5063;50.878;4.742;2023-07-29T03:34:56;3.70;;;1.87;;
10045;SDS011;5063;50.878;4.742;2023-07-29T03:37:22;3.00;;;2.00;;
10045;SDS011;5063;50.878;4.742;2023-07-29T03:39:47;2.83;;;2.20;;
10045;SDS011;5063;50.878;4.742;2023-07-29T03:42:13;2.23;;;1.70;;
10045;SDS011;5063;50.878;4.742;2023-07-29T03:44:39;4.97;;;2.10;;
10045;SDS011;5063;50.878;4.742;2023-07-29T03:47:05;2.00;;;1.83;;
10045;SDS011;5063;50.878;4.742;2023-07-29T03:49:31;3.40;;;2.10;;
10045;SDS011;5063;50.878;4.742;2023-07-29T03:51:57;2.70;;;2.03;;
10045;SDS011;5063;50.878;4.742;2023-07-29T03:54:23;2.20;;;2.00;;
10045;SDS011;5063;50.878;4.742;2023-07-29T03:56:48;2.23;;;2.03;;
10045;SDS011;5063;50.878;4.742;2023-07-29T03:59:14;5.73;;;1.90;;
10045;SDS011;5063;50.878;4.742;2023-07-29T04:01:40;2.37;;;2.07;;
10045;SDS011;5063;50.878;4.742;2023-07-29T04:04:06;5.37;;;1.87;;
10045;SDS011;5063;50.878;4.742;2023-07-29T04:06:31;4.13;;;2.40;;
10045;SDS011;5063;50.878;4.742;2023-07-29T04:08:57;2.20;;;2.00;;
10045;SDS011;5063;50.878;4.742;2023-07-29T04:11:23;3.77;;;2.13;;
10045;SDS011;5063;50.878;4.742;2023-07-29T04:13:49;4.53;;;2.43;;
10045;SDS011;5063;50.878;4.742;2023-07-29T04:16:14;4.30;;;2.07;;
10045;SDS011;5063;50.878;4.742;2023-07-29T04:18:41;3.27;;;2.27;;
10045;SDS011;5063;50.878;4.742;2023-07-29T04:21:07;3.63;;;2.00;;
10045;SDS011;5063;50.878;4.742;2023-07-29T04:23:33;5.43;;;2.27;;
10045;SDS011;5063;50.878;4.742;2023-07-29T04:25:59;2.63;;;2.13;;
10045;SDS011;5063;50.878;4.742;2023-07-29T04:28:24;2.73;;;2.23;;
10045;SDS011;5063;50.878;4.742;2023-07-29T04:30:50;2.93;;;2.00;;
10045;SDS011;5063;50.878;4.742;2023-07-29T04:33:15;4.30;;;2.37;;
10045;SDS011;5063;50.878;4.742;2023-07-29T04:35:41;3.50;;;2.40;;
10045;SDS011;5063;50.878;4.742;2023-07-29T04:38:07;2.33;;;1.90;;
10045;SDS011;5063;50.878;4.742;2023-07-29T04:40:33;3.87;;;2.50;;
10045;SDS011;5063;50.878;4.742;2023-07-29T04:43:00;3.90;;;2.10;;
10045;SDS011;5063;50.878;4.742;2023-07-29T04:45:29;3.13;;;2.03;;
10045;SDS011;5063;50.878;4.742;2023-07-29T04:47:56;4.27;;;1.80;;
10045;SDS011;5063;50.878;4.742;2023-07-29T04:50:22;2.53;;;1.60;;
10045;SDS011;5063;50.878;4.742;2023-07-29T04:52:47;3.43;;;1.97;;
10045;SDS011;5063;50.878;4.742;2023-07-29T04:55:13;4.43;;;2.20;;
10045;SDS011;5063;50.878;4.742;2023-07-29T04:57:39;2.17;;;1.97;;
10045;SDS011;5063;50.878;4.742;2023-07-29T05:00:04;1.70;;;1.60;;
10045;SDS011;5063;50.878;4.742;2023-07-29T05:02:31;2.57;;;2.00;;
10045;SDS011;5063;50.878;4.742;2023-07-29T05:04:56;3.53;;;2.07;;
10045;SDS011;5063;50.878;4.742;2023-07-29T05:07:22;3.03;;;2.00;;
10045;SDS011;5063;50.878;4.742;2023-07-29T05:09:48;3.80;;;1.83;;
10045;SDS011;5063;50.878;4.742;2023-07-29T05:12:14;3.37;;;1.90;;
10045;SDS011;5063;50.878;4.742;2023-07-29T05:14:40;2.10;;;1.90;;
10045;SDS011;5063;50.878;4.742;2023-07-29T05:17:05;2.60;;;1.90;;
10045;SDS011;5063;50.878;4.742;2023-07-29T05:19:31;1.70;;;1.60;;
10045;SDS011;5063;50.878;4.742;2023-07-29T05:21:57;2.80;;;1.93;;
10045;SDS011;5063;50.878;4.742;2023-07-29T05:24:23;3.33;;;1.63;;
10045;SDS011;5063;50.878;4.742;2023-07-29T05:26:49;2.80;;;2.07;;
10045;SDS011;5063;50.878;4.742;2023-07-29T05:29:15;2.73;;;1.67;;
10045;SDS011;5063;50.878;4.742;2023-07-29T05:31:40;5.33;;;1.70;;
10045;SDS011;5063;50.878;4.742;2023-07-29T05:34:06;3.57;;;2.20;;
10045;SDS011;5063;50.878;4.742;2023-07-29T05:36:32;1.70;;;1.60;;
10045;SDS011;5063;50.878;4.742;2023-07-29T05:38:57;2.53;;;1.83;;
10045;SDS011;5063;50.878;4.742;2023-07-29T05:41:23;3.50;;;1.67;;
10045;SDS011;5063;50.878;4.742;2023-07-29T05:43:51;1.97;;;1.50;;
10045;SDS011;5063;50.878;4.742;2023-07-29T05:46:16;4.17;;;1.90;;
10045;SDS011;5063;50.878;4.742;2023-07-29T05:48:42;1.43;;;1.30;;
10045;SDS011;5063;50.878;4.742;2023-07-29T05:51:08;2.37;;;1.50;;
10045;SDS011;5063;50.878;4.742;2023-07-29T05:53:33;3.23;;;1.70;;
10045;SDS011;5063;50.878;4.742;2023-07-29T05:55:59;1.40;;;1.20;;
10045;SDS011;5063;50.878;4.742;2023-07-29T05:58:25;2.23;;;1.53;;
10045;SDS011;5063;50.878;4.742;2023-07-29T06:00:51;5.57;;;2.00;;
10045;SDS011;5063;50.878;4.742;2023-07-29T06:03:16;4.85;;;1.85;;
10045;SDS011;5063;50.878;4.742;2023-07-29T06:05:42;3.25;;;1.40;;
10045;SDS011;5063;50.878;4.742;2023-07-29T06:08:08;2.13;;;1.50;;
10045;SDS011;5063;50.878;4.742;2023-07-29T06:10:33;2.47;;;1.52;;
10045;SDS011;5063;50.878;4.742;2023-07-29T06:12:59;2.80;;;1.43;;
10045;SDS011;5063;50.878;4.742;2023-07-29T06:15:25;1.52;;;1.13;;
10045;SDS011;5063;50.878;4.742;2023-07-29T06:17:51;4.50;;;1.90;;
10045;SDS011;5063;50.878;4.742;2023-07-29T06:20:16;2.08;;;1.15;;
10045;SDS011;5063;50.878;4.742;2023-07-29T06:22:45;1.45;;;1.30;;
10045;SDS011;5063;50.878;4.742;2023-07-29T06:25:11;1.30;;;1.20;;
10045;SDS011;5063;50.878;4.742;2023-07-29T06:27:36;1.50;;;1.40;;
10045;SDS011;5063;50.878;4.742;2023-07-29T06:30:02;3.03;;;1.30;;
10045;SDS011;5063;50.878;4.742;2023-07-29T06:32:28;2.80;;;1.50;;
10045;SDS011;5063;50.878;4.742;2023-07-29T06:34:54;1.35;;;1.10;;
10045;SDS011;5063;50.878;4.742;2023-07-29T06:37:20;1.38;;;1.27;;
10045;SDS011;5063;50.878;4.742;2023-07-29T06:39:46;1.25;;;1.10;;
10045;SDS011;5063;50.878;4.742;2023-07-29T06:42:12;3.60;;;1.30;;
10045;SDS011;5063;50.878;4.742;2023-07-29T06:44:38;3.17;;;1.30;;
10045;SDS011;5063;50.878;4.742;2023-07-29T06:47:04;2.30;;;1.20;;
10045;SDS011;5063;50.878;4.742;2023-07-29T06:49:30;1.05;;;0.93;;
10045;SDS011;5063;50.878;4.742;2023-07-29T06:51:56;1.45;;;1.35;;
10045;SDS011;5063;50.878;4.742;2023-07-29T06:54:25;1.38;;;1.00;;
10045;SDS011;5063;50.878;4.742;2023-07-29T06:56:51;1.67;;;1.23;;
10045;SDS011;5063;50.878;4.742;2023-07-29T06:59:17;2.25;;;1.35;;
10045;SDS011;5063;50.878;4.742;2023-07-29T07:01:43;2.47;;;1.38;;
10045;SDS011;5063;50.878;4.742;2023-07-29T07:04:09;1.60;;;1.08;;
10045;SDS011;5063;50.878;4.742;2023-07-29T07:06:34;2.00;;;1.13;;
10045;SDS011;5063;50.878;4.742;2023-07-29T07:09:00;2.50;;;1.10;;
10045;SDS011;5063;50.878;4.742;2023-07-29T07:11:26;1.70;;;1.08;;
10045;SDS011;5063;50.878;4.742;2023-07-29T07:13:51;1.80;;;1.08;;
10045;SDS011;5063;50.878;4.742;2023-07-29T07:16:17;1.77;;;0.98;;
10045;SDS011;5063;50.878;4.742;2023-07-29T07:18:43;1.10;;;1.00;;
10045;SDS011;5063;50.878;4.742;2023-07-29T07:21:09;1.70;;;1.20;;
10045;SDS011;5063;50.878;4.742;2023-07-29T07:23:35;2.22;;;1.05;;
10045;SDS011;5063;50.878;4.742;2023-07-29T07:26:01;1.77;;;1.08;;
10045;SDS011;5063;50.878;4.742;2023-07-29T07:28:27;1.30;;;1.17;;
10045;SDS011;5063;50.878;4.742;2023-07-29T07:30:53;1.23;;;1.13;;
10045;SDS011;5063;50.878;4.742;2023-07-29T07:33:21;1.35;;;1.20;;
10045;SDS011;5063;50.878;4.742;2023-07-29T07:35:47;2.88;;;1.30;;
10045;SDS011;5063;50.878;4.742;2023-07-29T07:38:12;3.42;;;1.75;;
10045;SDS011;5063;50.878;4.742;2023-07-29T07:40:38;2.75;;;1.60;;
10045;SDS011;5063;50.878;4.742;2023-07-29T07:43:04;3.40;;;1.40;;
10045;SDS011;5063;50.878;4.742;2023-07-29T07:45:31;2.50;;;1.38;;
10045;SDS011;5063;50.878;4.742;2023-07-29T07:47:58;2.92;;;1.45;;
10045;SDS011;5063;50.878;4.742;2023-07-29T07:50:24;2.13;;;1.10;;
10045;SDS011;5063;50.878;4.742;2023-07-29T07:52:49;1.08;;;1.02;;
10045;SDS011;5063;50.878;4.742;2023-07-29T07:55:15;3.22;;;1.40;;
10045;SDS011;5063;50.878;4.742;2023-07-29T07:57:41;1.02;;;1.02;;
10045;SDS011;5063;50.878;4.742;2023-07-29T08:00:07;5.38;;;1.15;;
10045;SDS011;5063;50.878;4.742;2023-07-29T08:02:33;1.73;;;1.23;;
10045;SDS011;5063;50.878;4.742;2023-07-29T08:04:58;1.25;;;1.15;;
10045;SDS011;5063;50.878;4.742;2023-07-29T08:07:24;1.48;;;1.38;;
10045;SDS011;5063;50.878;4.742;2023-07-29T08:09:50;1.88;;;1.27;;
10045;SDS011;5063;50.878;4.742;2023-07-29T08:12:15;3.20;;;1.40;;
10045;SDS011;5063;50.878;4.742;2023-07-29T08:14:41;1.92;;;1.17;;
10045;SDS011;5063;50.878;4.742;2023-07-29T08:17:07;1.15;;;1.05;;
10045;SDS011;5063;50.878;4.742;2023-07-29T08:19:32;2.60;;;1.02;;
10045;SDS011;5063;50.878;4.742;2023-07-29T08:22:02;1.77;;;1.15;;
10045;SDS011;5063;50.878;4.742;2023-07-29T08:24:28;2.88;;;1.00;;
10045;SDS011;5063;50.878;4.742;2023-07-29T08:26:54;1.10;;;1.00;;
10045;SDS011;5063;50.878;4.742;2023-07-29T08:29:19;1.85;;;1.38;;
10045;SDS011;5063;50.878;4.742;2023-07-29T08:31:45;1.80;;;1.40;;
10045;SDS011;5063;50.878;4.742;2023-07-29T08:34:11;3.92;;;1.40;;
10045;SDS011;5063;50.878;4.742;2023-07-29T08:36:36;2.13;;;1.33;;
10045;SDS011;5063;50.878;4.742;2023-07-29T08:39:02;2.72;;;1.25;;
10045;SDS011;5063;50.878;4.742;2023-07-29T08:41:29;1.95;;;1.30;;
10045;SDS011;5063;50.878;4.742;2023-07-29T08:44:03;1.63;;;1.27;;
10045;SDS011;5063;50.878;4.742;2023-07-29T08:46:34;1.48;;;1.08;;
10045;SDS011;5063;50.878;4.742;2023-07-29T08:49:00;4.07;;;1.10;;
10045;SDS011;5063;50.878;4.742;2023-07-29T08:51:27;1.75;;;1.25;;
10045;SDS011;5063;50.878;4.742;2023-07-29T08:53:54;1.10;;;0.98;;
10045;SDS011;5063;50.878;4.742;2023-07-29T08:56:20;1.30;;;1.20;;
10045;SDS011;5063;50.878;4.742;2023-07-29T08:58:47;1.52;;;0.95;;
10045;SDS011;5063;50.878;4.742;2023-07-29T09:01:13;1.35;;;1.02;;
10045;SDS011;5063;50.878;4.742;2023-07-29T09:03:40;1.70;;;1.45;;
10045;SDS011;5063;50.878;4.742;2023-07-29T09:06:06;0.73;;;0.73;;
10045;SDS011;5063;50.878;4.742;2023-07-29T09:08:33;2.33;;;1.10;;
10045;SDS011;5063;50.878;4.742;2023-07-29T09:10:59;4.20;;;1.25;;
10045;SDS011;5063;50.878;4.742;2023-07-29T09:13:26;1.20;;;1.10;;
10045;SDS011;5063;50.878;4.742;2023-07-29T09:15:55;2.05;;;1.40;;
10045;SDS011;5063;50.878;4.742;2023-07-29T09:18:22;1.73;;;1.30;;
10045;SDS011;5063;50.878;4.742;2023-07-29T09:20:50;1.23;;;1.13;;
10045;SDS011;5063;50.878;4.742;2023-07-29T09:23:16;1.42;;;1.10;;
10045;SDS011;5063;50.878;4.742;2023-07-29T09:25:42;1.40;;;1.30;;
10045;SDS011;5063;50.878;4.742;2023-07-29T09:28:14;2.63;;;1.55;;
10045;SDS011;5063;50.878;4.742;2023-07-29T09:30:41;4.72;;;1.40;;
10045;SDS011;5063;50.878;4.742;2023-07-29T09:33:09;1.75;;;1.38;;
10045;SDS011;5063;50.878;4.742;2023-07-29T09:35:35;1.30;;;1.20;;
10045;SDS011;5063;50.878;4.742;2023-07-29T09:38:02;1.45;;;1.25;;
10045;SDS011;5063;50.878;4.742;2023-07-29T09:40:38;2.67;;;1.40;;
10045;SDS011;5063;50.878;4.742;2023-07-29T09:43:05;1.30;;;1.20;;
10045;SDS011;5063;50.878;4.742;2023-07-29T09:45:35;4.57;;;1.48;;
10045;SDS011;5063;50.878;4.742;2023-07-29T09:48:03;1.55;;;1.45;;
10045;SDS011;5063;50.878;4.742;2023-07-29T09:50:30;2.53;;;1.35;;
10045;SDS011;5063;50.878;4.742;2023-07-29T09:52:56;1.50;;;1.40;;
10045;SDS011;5063;50.878;4.742;2023-07-29T09:55:25;1.95;;;1.30;;
10045;SDS011;5063;50.878;4.742;2023-07-29T09:57:58;3.58;;;1.50;;
10045;SDS011;5063;50.878;4.742;2023-07-29T10:00:28;1.25;;;1.15;;
10045;SDS011;5063;50.878;4.742;2023-07-29T10:02:54;1.65;;;1.55;;
10045;SDS011;5063;50.878;4.742;2023-07-29T10:05:22;1.77;;;1.58;;
10045;SDS011;5063;50.878;4.742;2023-07-29T10:07:48;2.45;;;1.50;;
10045;SDS011;5063;50.878;4.742;2023-07-29T10:10:15;1.60;;;1.50;;
10045;SDS011;5063;50.878;4.742;2023-07-29T10:12:41;1.40;;;1.30;;
10045;SDS011;5063;50.878;4.742;2023-07-29T10:15:08;1.83;;;1.40;;
10045;SDS011;5063;50.878;4.742;2023-07-29T10:17:34;1.73;;;1.58;;
10045;SDS011;5063;50.878;4.742;2023-07-29T10:20:01;1.33;;;1.20;;
10045;SDS011;5063;50.878;4.742;2023-07-29T10:22:32;1.60;;;1.38;;
10045;SDS011;5063;50.878;4.742;2023-07-29T10:25:08;2.28;;;1.73;;
10045;SDS011;5063;50.878;4.742;2023-07-29T10:30:14;2.03;;;1.40;;
10045;SDS011;5063;50.878;4.742;2023-07-29T10:32:41;2.28;;;1.45;;
10045;SDS011;5063;50.878;4.742;2023-07-29T10:35:11;2.00;;;1.35;;
10045;SDS011;5063;50.878;4.742;2023-07-29T10:37:38;1.80;;;1.40;;
10045;SDS011;5063;50.878;4.742;2023-07-29T10:40:08;1.80;;;1.70;;
10045;SDS011;5063;50.878;4.742;2023-07-29T10:42:35;2.20;;;1.58;;
10045;SDS011;5063;50.878;4.742;2023-07-29T10:45:20;1.42;;;1.33;;
10045;SDS011;5063;50.878;4.742;2023-07-29T10:47:47;2.25;;;1.52;;
10045;SDS011;5063;50.878;4.742;2023-07-29T10:50:19;1.48;;;1.33;;
10045;SDS011;5063;50.878;4.742;2023-07-29T10:52:55;1.60;;;1.50;;
10045;SDS011;5063;50.878;4.742;2023-07-29T10:55:25;1.50;;;1.40;;
10045;SDS011;5063;50.878;4.742;2023-07-29T10:58:04;2.83;;;1.92;;
10045;SDS011;5063;50.878;4.742;2023-07-29T11:00:30;4.88;;;1.73;;
10045;SDS011;5063;50.878;4.742;2023-07-29T11:03:05;1.98;;;1.88;;
10045;SDS011;5063;50.878;4.742;2023-07-29T11:05:45;1.90;;;1.70;;
10045;SDS011;5063;50.878;4.742;2023-07-29T11:13:37;2.15;;;1.88;;
10045;SDS011;5063;50.878;4.742;2023-07-29T11:16:03;1.92;;;1.65;;
10045;SDS011;5063;50.878;4.742;2023-07-29T11:18:31;2.13;;;1.63;;
10045;SDS011;5063;50.878;4.742;2023-07-29T11:20:58;2.00;;;1.80;;
10045;SDS011;5063;50.878;4.742;2023-07-29T11:23:32;1.67;;;1.58;;
10045;SDS011;5063;50.878;4.742;2023-07-29T11:26:00;1.73;;;1.63;;
10045;SDS011;5063;50.878;4.742;2023-07-29T11:28:26;2.05;;;1.58;;
10045;SDS011;5063;50.878;4.742;2023-07-29T11:30:53;2.60;;;1.90;;
10045;SDS011;5063;50.878;4.742;2023-07-29T11:33:26;4.88;;;1.70;;
10045;SDS011;5063;50.878;4.742;2023-07-29T11:35:53;3.25;;;1.60;;
10045;SDS011;5063;50.878;4.742;2023-07-29T11:38:19;1.85;;;1.60;;
10045;SDS011;5063;50.878;4.742;2023-07-29T11:41:07;3.78;;;1.65;;
10045;SDS011;5063;50.878;4.742;2023-07-29T11:43:34;2.20;;;2.00;;
10045;SDS011;5063;50.878;4.742;2023-07-29T11:46:01;1.60;;;1.50;;
10045;SDS011;5063;50.878;4.742;2023-07-29T11:48:28;2.80;;;1.80;;
10045;SDS011;5063;50.878;4.742;2023-07-29T11:50:55;2.15;;;1.95;;
10045;SDS011;5063;50.878;4.742;2023-07-29T11:53:22;3.05;;;1.60;;
10045;SDS011;5063;50.878;4.742;2023-07-29T11:55:51;2.22;;;2.03;;
10045;SDS011;5063;50.878;4.742;2023-07-29T11:58:20;1.92;;;1.80;;
10045;SDS011;5063;50.878;4.742;2023-07-29T12:00:46;2.03;;;1.60;;
10045;SDS011;5063;50.878;4.742;2023-07-29T12:03:12;3.13;;;1.70;;
10045;SDS011;5063;50.878;4.742;2023-07-29T12:05:40;2.33;;;1.95;;
10045;SDS011;5063;50.878;4.742;2023-07-29T12:08:06;2.75;;;1.52;;
10045;SDS011;5063;50.878;4.742;2023-07-29T12:10:34;2.65;;;1.70;;
10045;SDS011;5063;50.878;4.742;2023-07-29T12:13:00;3.10;;;1.80;;
10045;SDS011;5063;50.878;4.742;2023-07-29T12:15:28;1.65;;;1.55;;
10045;SDS011;5063;50.878;4.742;2023-07-29T12:17:58;2.92;;;1.45;;
10045;SDS011;5063;50.878;4.742;2023-07-29T12:20:27;1.88;;;1.70;;
10045;SDS011;5063;50.878;4.742;2023-07-29T12:23:00;1.80;;;1.70;;
10045;SDS011;5063;50.878;4.742;2023-07-29T12:25:28;2.42;;;1.75;;
10045;SDS011;5063;50.878;4.742;2023-07-29T12:27:55;1.73;;;1.63;;
10045;SDS011;5063;50.878;4.742;2023-07-29T12:30:23;2.10;;;1.60;;
10045;SDS011;5063;50.878;4.742;2023-07-29T12:32:52;1.60;;;1.50;;
10045;SDS011;5063;50.878;4.742;2023-07-29T12:35:20;1.70;;;1.60;;
10045;SDS011;5063;50.878;4.742;2023-07-29T12:37:46;2.05;;;1.65;;
10045;SDS011;5063;50.878;4.742;2023-07-29T12:40:22;2.22;;;1.48;;
10045;SDS011;5063;50.878;4.742;2023-07-29T12:42:49;1.80;;;1.45;;
10045;SDS011;5063;50.878;4.742;2023-07-29T12:45:16;2.00;;;1.90;;
10045;SDS011;5063;50.878;4.742;2023-07-29T12:47:43;2.00;;;1.80;;
10045;SDS011;5063;50.878;4.742;2023-07-29T12:50:09;3.35;;;1.98;;
10045;SDS011;5063;50.878;4.742;2023-07-29T12:52:35;2.22;;;1.75;;
10045;SDS011;5063;50.878;4.742;2023-07-29T12:55:00;4.97;;;2.35;;
10045;SDS011;5063;50.878;4.742;2023-07-29T12:57:27;7.00;;;2.40;;
10045;SDS011;5063;50.878;4.742;2023-07-29T12:59:52;1.95;;;1.75;;
10045;SDS011;5063;50.878;4.742;2023-07-29T13:02:18;2.10;;;1.73;;
10045;SDS011;5063;50.878;4.742;2023-07-29T13:04:44;2.15;;;1.95;;
10045;SDS011;5063;50.878;4.742;2023-07-29T13:07:09;2.08;;;1.90;;
10045;SDS011;5063;50.878;4.742;2023-07-29T13:09:35;5.85;;;2.47;;
10045;SDS011;5063;50.878;4.742;2023-07-29T13:12:01;5.88;;;2.35;;
10045;SDS011;5063;50.878;4.742;2023-07-29T13:14:27;4.60;;;2.30;;
10045;SDS011;5063;50.878;4.742;2023-07-29T13:16:52;3.42;;;2.30;;
10045;SDS011;5063;50.878;4.742;2023-07-29T13:19:18;2.50;;;2.20;;
10045;SDS011;5063;50.878;4.742;2023-07-29T13:21:44;2.15;;;1.95;;
10045;SDS011;5063;50.878;4.742;2023-07-29T13:24:09;2.65;;;2.03;;
10045;SDS011;5063;50.878;4.742;2023-07-29T13:26:35;2.05;;;1.95;;
10045;SDS011;5063;50.878;4.742;2023-07-29T13:29:01;1.98;;;1.85;;
10045;SDS011;5063;50.878;4.742;2023-07-29T13:31:27;3.38;;;1.83;;
10045;SDS011;5063;50.878;4.742;2023-07-29T13:33:52;2.95;;;1.90;;
10045;SDS011;5063;50.878;4.742;2023-07-29T13:36:18;1.67;;;1.58;;
10045;SDS011;5063;50.878;4.742;2023-07-29T13:38:44;1.90;;;1.60;;
10045;SDS011;5063;50.878;4.742;2023-07-29T13:41:09;1.58;;;1.48;;
10045;SDS011;5063;50.878;4.742;2023-07-29T13:43:35;1.50;;;1.40;;
10045;SDS011;5063;50.878;4.742;2023-07-29T13:46:01;1.42;;;1.40;;
10045;SDS011;5063;50.878;4.742;2023-07-29T13:48:26;2.40;;;1.40;;
10045;SDS011;5063;50.878;4.742;2023-07-29T13:50:52;1.35;;;1.30;;
10045;SDS011;5063;50.878;4.742;2023-07-29T13:53:18;1.60;;;1.50;;
10045;SDS011;5063;50.878;4.742;2023-07-29T13:55:43;1.70;;;1.60;;
10045;SDS011;5063;50.878;4.742;2023-07-29T13:58:09;1.90;;;1.70;;
10045;SDS011;5063;50.878;4.742;2023-07-29T14:00:35;1.88;;;1.65;;
10045;SDS011;5063;50.878;4.742;2023-07-29T14:03:00;1.40;;;1.30;;
10045;SDS011;5063;50.878;4.742;2023-07-29T14:05:26;1.63;;;1.52;;
10045;SDS011;5063;50.878;4.742;2023-07-29T14:07:52;1.73;;;1.52;;
10045;SDS011;5063;50.878;4.742;2023-07-29T14:10:17;1.95;;;1.60;;
10045;SDS011;5063;50.878;4.742;2023-07-29T14:12:43;1.67;;;1.27;;
10045;SDS011;5063;50.878;4.742;2023-07-29T14:15:09;2.05;;;1.85;;
10045;SDS011;5063;50.878;4.742;2023-07-29T14:17:34;1.60;;;1.50;;
10045;SDS011;5063;50.878;4.742;2023-07-29T14:20:00;1.92;;;1.63;;
10045;SDS011;5063;50.878;4.742;2023-07-29T14:22:26;2.33;;;1.85;;
10045;SDS011;5063;50.878;4.742;2023-07-29T14:24:52;1.67;;;1.58;;
10045;SDS011;5063;50.878;4.742;2023-07-29T14:27:18;1.65;;;1.55;;
10045;SDS011;5063;50.878;4.742;2023-07-29T14:29:43;1.60;;;1.50;;
10045;SDS011;5063;50.878;4.742;2023-07-29T14:32:09;1.80;;;1.70;;
10045;SDS011;5063;50.878;4.742;2023-07-29T14:34:35;1.67;;;1.58;;
10045;SDS011;5063;50.878;4.742;2023-07-29T14:37:00;1.48;;;1.38;;
10045;SDS011;5063;50.878;4.742;2023-07-29T14:39:26;1.38;;;1.27;;
10045;SDS011;5063;50.878;4.742;2023-07-29T14:41:52;1.40;;;1.30;;
10045;SDS011;5063;50.878;4.742;2023-07-29T14:44:17;1.20;;;1.20;;
10045;SDS011;5063;50.878;4.742;2023-07-29T14:46:43;1.17;;;1.10;;
10045;SDS011;5063;50.878;4.742;2023-07-29T14:49:09;1.38;;;1.27;;
10045;SDS011;5063;50.878;4.742;2023-07-29T14:51:34;1.55;;;1.23;;
10045;SDS011;5063;50.878;4.742;2023-07-29T14:54:00;1.27;;;1.17;;
10045;SDS011;5063;50.878;4.742;2023-07-29T14:56:26;2.65;;;1.00;;
10045;SDS011;5063;50.878;4.742;2023-07-29T14:58:52;1.27;;;1.20;;
10045;SDS011;5063;50.878;4.742;2023-07-29T15:01:17;1.40;;;1.30;;
10045;SDS011;5063;50.878;4.742;2023-07-29T15:03:43;1.33;;;1.05;;
10045;SDS011;5063;50.878;4.742;2023-07-29T15:06:09;1.40;;;1.08;;
10045;SDS011;5063;50.878;4.742;2023-07-29T15:08:35;1.48;;;1.38;;
10045;SDS011;5063;50.878;4.742;2023-07-29T15:11:01;1.20;;;1.10;;
10045;SDS011;5063;50.878;4.742;2023-07-29T15:13:27;1.85;;;1.10;;